PAFAPASK

Guest
Details From PAFA - Fairbanks Intl
To PASK - Selawik
Flight Number -
Tags Generated
Created
Modified
Stats Distance 318 nm / 589 km
Max Altitude 0 ft / 0 m
Waypoints 3
Social Downloads 0
Likes 0
Share VATSIM

Download

Looking for another format? Having issues loading an existing format? Contact us
Advertisement - Login to hide

Notes

Generated

Route

PAFA R0604 PASK

ID Type Via Altitude Latitude Longitude Leg Dist Tot Dist Heading (true) Name
O PAFA APT - 0 ft / 0 m 64.81606˚ -147.84656˚ - 0 nm - -
R0604 FIX - 0 ft / 0 m 66.59955˚ -159.97904˚ 317 nm 317 nm 295° / 284° -
O PASK APT - 0 ft / 0 m 66.60159˚ -159.99658˚ 0 nm 318 nm 286° / 286° -

Altitude Profile

Advertisement - Login to hide

Weather


0- 5 10 15 20 25 30 35+ Temperature / ° C

Clouds and Precipitation
Forecast for 2018-05-25 06:00 UTC. Updated 2 hours ago

Ground ~20,000 ft ~40,000 ft Winds

PAFA

Details ICAO PAFA (FAI)
Name FAIRBANKS INTL
Region USA (Alaska)
Timezone America/Anchorage (UTC-8.0)
Stats Elevation 434 ft / 132 m (AMSL)
Location 64.813909° -147.855392°
Runways 3
Magnetic Variation 17.324° E

METAR

PAFA 250653Z 00000KT 10SM FEW040 SCT080 SCT130 BKN200 09/04 A2970

Decode

TAF

TAF PAFA 250526Z 2506/2612 25008KT P6SM SCT040 BKN070 FM251000 VRB03KT P6SM VCFG SCT001 SCT040 FM252000 25006KT P6SM VCSH BKN050

Decode

Departure Runways

ID Width Length Bearing (true) Bearing (mag) Surface Threshold Offset Overrun Length
01 75 ft / 23 m 2,892 ft / 881 m 38.04° 20.72° Gravel 0 ft / 0 m 0 ft / 0 m
01L 150 ft / 46 m 11,767 ft / 3,587 m 38.00° 20.68° Asphalt 750 ft / 229 m 0 ft / 0 m
01R 100 ft / 30 m 6,482 ft / 1,976 m 38.01° 20.69° Asphalt 0 ft / 0 m 0 ft / 0 m
19 75 ft / 23 m 2,892 ft / 881 m 218.05° 200.73° Gravel 0 ft / 0 m 0 ft / 0 m
19L 100 ft / 30 m 6,482 ft / 1,976 m 218.04° 200.72° Asphalt 0 ft / 0 m 0 ft / 0 m
19R 150 ft / 46 m 11,767 ft / 3,587 m 218.04° 200.72° Asphalt 750 ft / 229 m 0 ft / 0 m

PASK

Details ICAO PASK (WLK)
Name SELAWIK
Region USA (Alaska)
Timezone America/Anchorage (UTC-8.0)
Stats Elevation 13 ft / 4 m (AMSL)
Location 66.600159° -159.985875°
Runways 2
Magnetic Variation 12.569° E

METAR

PASK 250656Z AUTO 25014G22KT 10SM CLR 02/00 A2977 RMK AO2 SLP077 T00170000 FZRANO $

Decode

TAF

Not found

Destination Runways

ID Width Length Bearing (true) Bearing (mag) Surface Threshold Offset Overrun Length
03 59 ft / 18 m 2,992 ft / 912 m 53.27° 40.70° Gravel 0 ft / 0 m 0 ft / 0 m
09 59 ft / 18 m 2,650 ft / 808 m 106.30° 93.73° Gravel 0 ft / 0 m 0 ft / 0 m
21 59 ft / 18 m 2,992 ft / 912 m 233.28° 220.71° Gravel 0 ft / 0 m 0 ft / 0 m
27 59 ft / 18 m 2,650 ft / 808 m 286.32° 273.75° Gravel 0 ft / 0 m 0 ft / 0 m